createdAt,value
2022-07-29T00:00:17.403Z,17.43
2022-07-29T00:05:25.421Z,17.3
2022-07-29T00:10:32.633Z,17.17
2022-07-29T00:15:40.558Z,17.03
2022-07-29T00:20:48.034Z,16.88
2022-07-29T00:25:54.864Z,16.73
2022-07-29T00:31:02.150Z,16.61
2022-07-29T00:36:08.657Z,16.5
2022-07-29T00:41:16.689Z,16.35
2022-07-29T00:46:24.842Z,16.28
2022-07-29T00:51:33.119Z,16.14
2022-07-29T00:56:40.679Z,16.04
2022-07-29T01:02:27.471Z,15.94
2022-07-29T01:07:40.419Z,15.82
2022-07-29T01:12:48.340Z,15.67
2022-07-29T01:17:55.612Z,15.56
2022-07-29T01:23:03.857Z,15.49
2022-07-29T01:28:11.847Z,15.47
2022-07-29T01:33:19.982Z,15.43
2022-07-29T01:38:27.763Z,15.38
2022-07-29T01:43:36.041Z,15.34
2022-07-29T01:48:44.120Z,15.3
2022-07-29T01:53:51.929Z,15.22
2022-07-29T01:59:00.089Z,15.22
2022-07-29T02:04:08.089Z,15.22
2022-07-29T02:09:15.778Z,15.34
2022-07-29T02:14:24.764Z,15.42
2022-07-29T02:19:33.256Z,15.4
2022-07-29T02:24:41.262Z,15.35
2022-07-29T02:29:48.870Z,15.26
2022-07-29T02:34:56.900Z,15.17
2022-07-29T02:40:04.101Z,15.07
2022-07-29T02:45:11.234Z,14.98
2022-07-29T02:50:19.075Z,14.9
2022-07-29T02:55:27.107Z,14.88
2022-07-29T03:00:35.322Z,14.9
2022-07-29T03:05:43.953Z,15.0
2022-07-29T03:10:50.769Z,15.04
2022-07-29T03:15:58.395Z,15.11
2022-07-29T03:21:05.907Z,15.12
2022-07-29T03:26:13.487Z,15.04
2022-07-29T03:31:21.421Z,14.99
2022-07-29T03:36:29.561Z,14.98
2022-07-29T03:41:37.715Z,15.0
2022-07-29T03:46:45.899Z,15.06
2022-07-29T03:51:54.311Z,15.04
2022-07-29T03:57:02.283Z,15.07
2022-07-29T04:02:11.081Z,15.15
2022-07-29T04:07:19.502Z,15.38
2022-07-29T04:12:28.152Z,15.82
2022-07-29T04:17:43.240Z,16.46
2022-07-29T04:22:51.173Z,17.43
2022-07-29T04:27:58.334Z,18.26
2022-07-29T04:33:06.174Z,19.06
2022-07-29T04:38:14.634Z,19.83
2022-07-29T04:43:23.069Z,20.15
2022-07-29T04:48:30.980Z,20.94
2022-07-29T04:53:39.240Z,21.56
2022-07-29T04:58:47.290Z,22.35
2022-07-29T05:03:54.506Z,22.92
2022-07-29T05:09:02.394Z,22.56
2022-07-29T05:14:09.580Z,21.72
2022-07-29T05:19:17.592Z,21.83
2022-07-29T05:24:27.005Z,21.89
2022-07-29T05:29:34.334Z,21.98
2022-07-29T05:34:42.498Z,22.3
2022-07-29T05:39:50.694Z,21.83
2022-07-29T05:44:58.547Z,21.62
2022-07-29T05:50:05.818Z,21.68
2022-07-29T05:55:12.952Z,21.75
2022-07-29T06:00:20.753Z,21.79
2022-07-29T06:05:28.995Z,21.68
2022-07-29T06:10:36.218Z,21.71
2022-07-29T06:15:44.828Z,22.0
2022-07-29T06:20:52.093Z,21.92
2022-07-29T06:38:52.330Z,20.54
2022-07-29T06:43:59.560Z,20.17
2022-07-29T06:49:06.817Z,19.96
2022-07-29T06:54:15.172Z,19.85
2022-07-29T06:59:22.715Z,19.93
2022-07-29T07:04:29.736Z,20.1
2022-07-29T07:09:38.687Z,20.08
2022-07-29T07:14:46.009Z,19.73
2022-07-29T07:19:53.627Z,19.68
2022-07-29T07:25:01.045Z,19.94
2022-07-29T07:30:09.133Z,20.06
2022-07-29T07:35:16.160Z,20.14
2022-07-29T07:40:24.987Z,20.11
2022-07-29T07:45:33.101Z,20.15
2022-07-29T07:50:40.891Z,20.18
2022-07-29T07:55:48.481Z,20.38
2022-07-29T08:00:55.932Z,20.76
2022-07-29T08:06:05.019Z,21.1
2022-07-29T08:11:12.238Z,21.54
2022-07-29T08:16:20.162Z,22.06
2022-07-29T08:21:28.342Z,22.73
2022-07-29T08:26:36.010Z,22.76
2022-07-29T08:31:44.357Z,22.31
2022-07-29T08:36:51.463Z,22.19
2022-07-29T08:42:00.243Z,22.23
2022-07-29T08:47:07.782Z,22.22
2022-07-29T08:52:15.608Z,22.36
2022-07-29T08:57:22.857Z,22.99
2022-07-29T09:02:30.053Z,23.51
2022-07-29T09:07:38.999Z,23.56
2022-07-29T09:12:46.447Z,23.28
2022-07-29T09:17:54.175Z,23.1
2022-07-29T09:23:02.002Z,22.96
2022-07-29T09:28:07.974Z,22.79
2022-07-29T09:33:15.863Z,22.43
2022-07-29T09:38:24.064Z,22.15
2022-07-29T09:43:32.089Z,21.78
2022-07-29T09:48:40.014Z,21.65
2022-07-29T09:53:48.800Z,21.85
2022-07-29T09:58:56.293Z,22.3
2022-07-29T10:04:09.713Z,22.75
2022-07-29T10:09:16.414Z,23.54
2022-07-29T10:14:24.249Z,24.61
2022-07-29T10:19:32.036Z,25.66
2022-07-29T10:24:39.354Z,27.14
2022-07-29T10:29:51.480Z,34.2
2022-07-29T10:34:58.769Z,37.42
2022-07-29T10:40:06.018Z,38.38
2022-07-29T10:45:14.676Z,39.51
2022-07-29T10:50:22.528Z,37.24
2022-07-29T10:55:30.680Z,36.54
2022-07-29T11:00:38.509Z,39.95
2022-07-29T11:05:46.360Z,37.39
2022-07-29T11:10:53.813Z,36.99
2022-07-29T11:16:01.961Z,38.11
2022-07-29T11:21:11.093Z,40.18
2022-07-29T11:26:17.897Z,37.39
2022-07-29T11:31:25.767Z,36.42
2022-07-29T11:36:33.477Z,37.36
2022-07-29T11:41:42.014Z,39.43
2022-07-29T11:46:49.781Z,39.92
2022-07-29T11:51:57.705Z,38.08
2022-07-29T11:57:05.940Z,35.99
2022-07-29T12:02:13.426Z,36.72
2022-07-29T12:07:20.628Z,37.13
2022-07-29T12:12:28.386Z,36.08
2022-07-29T12:17:36.527Z,35.44
2022-07-29T12:22:44.394Z,34.83
2022-07-29T12:27:52.082Z,33.61
2022-07-29T12:32:58.993Z,33.26
2022-07-29T12:44:45.588Z,33.49
2022-07-29T12:49:51.030Z,34.64
2022-07-29T12:54:59.360Z,35.35
2022-07-29T13:00:06.330Z,35.72
2022-07-29T13:05:13.948Z,35.29
2022-07-29T13:10:22.774Z,34.7
2022-07-29T13:15:29.540Z,33.16
2022-07-29T13:20:36.101Z,32.38
2022-07-29T13:25:43.297Z,31.5
2022-07-29T13:30:51.065Z,31.44
2022-07-29T13:35:58.518Z,31.49
2022-07-29T13:41:06.674Z,31.72
2022-07-29T13:46:15.110Z,32.69
2022-07-29T13:51:22.101Z,32.85
2022-07-29T13:56:30.449Z,33.32
2022-07-29T14:01:37.695Z,32.34
2022-07-29T14:06:45.948Z,31.28
2022-07-29T14:11:54.470Z,31.86
2022-07-29T14:17:02.885Z,31.47
2022-07-29T14:22:11.314Z,30.71
2022-07-29T14:27:17.969Z,29.98
2022-07-29T14:32:24.819Z,30.36
2022-07-29T14:37:31.827Z,30.64
2022-07-29T14:42:39.677Z,29.76
2022-07-29T14:47:47.712Z,29.07
2022-07-29T14:52:56.525Z,28.4
2022-07-29T14:58:03.856Z,28.16
2022-07-29T15:03:11.614Z,28.17
2022-07-29T15:08:19.992Z,28.6
2022-07-29T15:13:28.439Z,28.94
2022-07-29T15:18:35.997Z,30.76
2022-07-29T15:23:44.583Z,32.02
2022-07-29T15:28:52.095Z,32.43
2022-07-29T15:34:01.213Z,32.42
2022-07-29T15:39:08.455Z,31.82
2022-07-29T15:44:16.061Z,30.54
2022-07-29T15:49:22.854Z,29.66
2022-07-29T15:54:31.803Z,31.46
2022-07-29T15:59:39.133Z,32.12
2022-07-29T16:04:46.315Z,32.13
2022-07-29T16:09:54.729Z,32.12
2022-07-29T16:15:01.791Z,31.02
2022-07-29T16:20:09.782Z,30.9
2022-07-29T16:25:17.893Z,30.72
2022-07-29T16:30:25.096Z,29.32
2022-07-29T16:35:32.036Z,28.49
2022-07-29T16:42:10.837Z,27.73
2022-07-29T16:47:17.219Z,27.23
2022-07-29T16:52:23.713Z,26.74
2022-07-29T16:57:32.013Z,26.46
2022-07-29T17:02:38.970Z,26.2
2022-07-29T17:07:46.319Z,25.97
2022-07-29T17:12:53.379Z,25.78
2022-07-29T17:18:01.320Z,25.52
2022-07-29T17:23:08.561Z,25.24
2022-07-29T17:28:15.608Z,25.01
2022-07-29T17:33:23.744Z,24.72
2022-07-29T17:38:32.325Z,24.64
2022-07-29T17:43:40.675Z,24.54
2022-07-29T17:48:48.924Z,24.36
2022-07-29T17:53:56.854Z,24.06
2022-07-29T17:59:04.975Z,23.72
2022-07-29T18:04:12.470Z,23.36
2022-07-29T18:09:20.391Z,23.11
2022-07-29T18:14:29.127Z,22.78
2022-07-29T18:19:36.712Z,22.43
2022-07-29T18:24:44.835Z,22.19
2022-07-29T18:29:52.538Z,21.97
2022-07-29T18:34:59.554Z,21.85
2022-07-29T18:40:07.221Z,21.65
2022-07-29T18:45:16.286Z,21.49
2022-07-29T18:50:24.216Z,21.28
2022-07-29T18:55:32.606Z,21.04
2022-07-29T19:00:40.386Z,20.9
2022-07-29T19:05:49.015Z,20.81
2022-07-29T19:10:57.282Z,20.68
2022-07-29T19:16:04.979Z,20.44
2022-07-29T19:21:12.922Z,20.26
2022-07-29T19:26:21.250Z,20.07
2022-07-29T19:31:29.080Z,19.9
2022-07-29T19:36:36.093Z,19.86
2022-07-29T19:41:43.805Z,19.86
2022-07-29T19:46:51.823Z,19.57
2022-07-29T19:52:00.163Z,19.33
2022-07-29T19:57:07.152Z,19.22
2022-07-29T20:02:15.295Z,19.15
2022-07-29T20:07:22.696Z,19.06
2022-07-29T20:12:30.515Z,18.94
2022-07-29T20:17:38.325Z,18.79
2022-07-29T20:22:45.368Z,18.62
2022-07-29T20:27:53.214Z,18.49
2022-07-29T20:33:00.411Z,18.46
2022-07-29T20:38:08.260Z,18.42
2022-07-29T20:43:17.096Z,18.44
2022-07-29T20:48:24.766Z,18.46
2022-07-29T20:53:32.838Z,18.38
2022-07-29T20:58:40.227Z,18.34
2022-07-29T21:03:47.473Z,18.33
2022-07-29T21:08:55.291Z,18.28
2022-07-29T21:14:03.183Z,18.14
2022-07-29T21:19:10.345Z,18.04
2022-07-29T21:24:18.618Z,18.06
2022-07-29T21:29:25.368Z,18.03
2022-07-29T21:34:33.490Z,17.97
2022-07-29T21:39:41.937Z,17.96
2022-07-29T21:44:50.683Z,17.96
2022-07-29T21:49:58.584Z,17.88
2022-07-29T21:55:06.747Z,17.85
2022-07-29T22:00:16.130Z,17.89
2022-07-29T22:05:23.510Z,17.85
2022-07-29T22:10:31.318Z,17.82
2022-07-29T22:15:39.140Z,17.85
2022-07-29T22:20:47.251Z,18.04
2022-07-29T22:25:54.708Z,18.39
2022-07-29T22:31:02.212Z,18.64
2022-07-29T22:36:09.322Z,18.72
2022-07-29T22:41:16.421Z,18.83
2022-07-29T22:46:22.910Z,19.04
2022-07-29T22:51:30.166Z,19.19
2022-07-29T22:56:38.921Z,19.22
2022-07-29T23:01:47.485Z,19.31
2022-07-29T23:07:00.746Z,19.36
2022-07-29T23:12:07.933Z,19.43
2022-07-29T23:17:16.217Z,19.52
2022-07-29T23:22:24.250Z,19.88
2022-07-29T23:27:31.476Z,20.42
2022-07-29T23:32:39.771Z,20.54
2022-07-29T23:37:47.515Z,20.83
2022-07-29T23:42:55.593Z,20.96
2022-07-29T23:48:02.775Z,20.15
2022-07-29T23:53:09.338Z,19.14
2022-07-29T23:58:17.179Z,18.67
